Terminal Aerodrome Forecast
Issued by NWS Green Bay, WI

Home | Current Version | Previous Version | Graphics & Text | Print | Product List | Glossary On
Versions: 1 2 3 4 5 6 7 8 9 10 11 12 13 14 15 16 17 18 19 20 21 22 23 24 25 26 27 28 29 30 31 32 33 34 35 36 37
000
FTUS43 KGRB 281700
TAFGRB
TAF
KGRB 281740Z 2818/2918 16008KT 6SM -SN BR SCT025 OVC050
      TEMPO 2818/2822 1 1/2SM -SN OVC025
     FM282200 15006KT 6SM -SN BR SCT017 OVC030
      TEMPO 2822/2902 1 1/2SM -FZDZSN OVC017
     FM290200 17005KT 5SM -FZDZSN BR OVC015
     FM290500 16004KT 3SM BR OVC012
     FM290800 16004KT 2SM BR OVC009
     FM291600 17007KT 3SM BR BKN010 BKN040=

USA.gov is the U.S. government's official web portal to all federal, state and local government web resources and services.